sensor_id;sensor_type;location;lat;lon;timestamp;temperature;humidity
21169;DHT22;10742;51.816;8.662;2022-08-21T00:00:12;21.60;90.00
21169;DHT22;10742;51.816;8.662;2022-08-21T00:03:33;21.60;90.30
21169;DHT22;10742;51.816;8.662;2022-08-21T00:06:54;21.60;90.00
21169;DHT22;10742;51.816;8.662;2022-08-21T00:10:16;21.50;90.10
21169;DHT22;10742;51.816;8.662;2022-08-21T00:13:38;21.50;90.10
21169;DHT22;10742;51.816;8.662;2022-08-21T00:17:01;21.50;90.20
21169;DHT22;10742;51.816;8.662;2022-08-21T00:20:22;21.40;90.20
21169;DHT22;10742;51.816;8.662;2022-08-21T00:23:44;21.40;90.20
21169;DHT22;10742;51.816;8.662;2022-08-21T00:27:05;21.40;90.30
21169;DHT22;10742;51.816;8.662;2022-08-21T00:30:26;21.40;90.30
21169;DHT22;10742;51.816;8.662;2022-08-21T00:33:48;21.30;90.30
21169;DHT22;10742;51.816;8.662;2022-08-21T00:37:09;21.30;90.40
21169;DHT22;10742;51.816;8.662;2022-08-21T00:40:37;21.30;90.40
21169;DHT22;10742;51.816;8.662;2022-08-21T00:43:58;21.30;90.50
21169;DHT22;10742;51.816;8.662;2022-08-21T00:47:19;21.30;90.40
21169;DHT22;10742;51.816;8.662;2022-08-21T00:50:44;21.30;90.80
21169;DHT22;10742;51.816;8.662;2022-08-21T00:54:07;21.30;90.60
21169;DHT22;10742;51.816;8.662;2022-08-21T00:57:36;21.20;90.40
21169;DHT22;10742;51.816;8.662;2022-08-21T01:00:59;21.20;90.60
21169;DHT22;10742;51.816;8.662;2022-08-21T01:04:24;21.20;90.50
21169;DHT22;10742;51.816;8.662;2022-08-21T01:07:45;21.20;90.50
21169;DHT22;10742;51.816;8.662;2022-08-21T01:11:07;21.20;90.50
21169;DHT22;10742;51.816;8.662;2022-08-21T01:14:29;21.10;90.50
21169;DHT22;10742;51.816;8.662;2022-08-21T01:17:51;21.10;90.50
21169;DHT22;10742;51.816;8.662;2022-08-21T01:21:22;21.10;90.50
21169;DHT22;10742;51.816;8.662;2022-08-21T01:24:43;21.10;90.70
21169;DHT22;10742;51.816;8.662;2022-08-21T01:28:12;21.00;90.50
21169;DHT22;10742;51.816;8.662;2022-08-21T01:31:33;21.00;90.70
21169;DHT22;10742;51.816;8.662;2022-08-21T01:34:54;20.90;90.40
21169;DHT22;10742;51.816;8.662;2022-08-21T01:38:15;20.90;90.50
21169;DHT22;10742;51.816;8.662;2022-08-21T01:41:37;20.80;90.50
21169;DHT22;10742;51.816;8.662;2022-08-21T01:44:58;20.80;90.60
21169;DHT22;10742;51.816;8.662;2022-08-21T01:48:19;20.70;90.70
21169;DHT22;10742;51.816;8.662;2022-08-21T01:51:40;20.70;90.70
21169;DHT22;10742;51.816;8.662;2022-08-21T01:55:04;20.70;90.80
21169;DHT22;10742;51.816;8.662;2022-08-21T01:58:26;20.60;90.90
21169;DHT22;10742;51.816;8.662;2022-08-21T02:01:47;20.60;90.90
21169;DHT22;10742;51.816;8.662;2022-08-21T02:05:11;20.60;90.80
21169;DHT22;10742;51.816;8.662;2022-08-21T02:08:33;20.50;90.90
21169;DHT22;10742;51.816;8.662;2022-08-21T02:11:54;20.50;90.90
21169;DHT22;10742;51.816;8.662;2022-08-21T02:15:16;20.50;90.90
21169;DHT22;10742;51.816;8.662;2022-08-21T02:18:37;20.40;90.90
21169;DHT22;10742;51.816;8.662;2022-08-21T02:21:58;20.40;90.80
21169;DHT22;10742;51.816;8.662;2022-08-21T02:25:21;20.40;90.70
21169;DHT22;10742;51.816;8.662;2022-08-21T02:28:42;20.30;90.80
21169;DHT22;10742;51.816;8.662;2022-08-21T02:32:03;20.30;90.90
21169;DHT22;10742;51.816;8.662;2022-08-21T02:35:25;20.20;91.00
21169;DHT22;10742;51.816;8.662;2022-08-21T02:38:46;20.20;91.00
21169;DHT22;10742;51.816;8.662;2022-08-21T02:42:07;20.10;91.10
21169;DHT22;10742;51.816;8.662;2022-08-21T02:45:30;20.10;91.10
21169;DHT22;10742;51.816;8.662;2022-08-21T02:48:51;20.10;91.20
21169;DHT22;10742;51.816;8.662;2022-08-21T02:52:12;20.10;91.10
21169;DHT22;10742;51.816;8.662;2022-08-21T02:55:34;20.10;91.10
21169;DHT22;10742;51.816;8.662;2022-08-21T02:58:56;20.00;91.10
21169;DHT22;10742;51.816;8.662;2022-08-21T03:02:17;20.10;91.10
21169;DHT22;10742;51.816;8.662;2022-08-21T03:05:39;20.10;91.10
21169;DHT22;10742;51.816;8.662;2022-08-21T03:09:00;20.00;91.00
21169;DHT22;10742;51.816;8.662;2022-08-21T03:12:21;20.00;91.00
21169;DHT22;10742;51.816;8.662;2022-08-21T03:15:42;20.00;91.10
21169;DHT22;10742;51.816;8.662;2022-08-21T03:19:03;20.00;91.00
21169;DHT22;10742;51.816;8.662;2022-08-21T03:22:25;19.90;91.10
21169;DHT22;10742;51.816;8.662;2022-08-21T03:25:47;19.90;91.10
21169;DHT22;10742;51.816;8.662;2022-08-21T03:29:09;19.80;91.00
21169;DHT22;10742;51.816;8.662;2022-08-21T03:32:30;19.80;91.10
21169;DHT22;10742;51.816;8.662;2022-08-21T03:36:01;19.80;91.10
21169;DHT22;10742;51.816;8.662;2022-08-21T03:39:23;19.80;91.30
21169;DHT22;10742;51.816;8.662;2022-08-21T03:42:44;19.70;91.20
21169;DHT22;10742;51.816;8.662;2022-08-21T03:46:07;19.70;91.20
21169;DHT22;10742;51.816;8.662;2022-08-21T03:49:29;19.70;91.30
21169;DHT22;10742;51.816;8.662;2022-08-21T03:52:50;19.70;91.30
21169;DHT22;10742;51.816;8.662;2022-08-21T03:56:11;19.70;91.40
21169;DHT22;10742;51.816;8.662;2022-08-21T03:59:32;19.60;91.40
21169;DHT22;10742;51.816;8.662;2022-08-21T04:02:53;19.60;91.50
21169;DHT22;10742;51.816;8.662;2022-08-21T04:06:14;19.60;91.60
21169;DHT22;10742;51.816;8.662;2022-08-21T04:09:35;19.70;91.60
21169;DHT22;10742;51.816;8.662;2022-08-21T04:12:57;19.70;91.60
21169;DHT22;10742;51.816;8.662;2022-08-21T04:16:18;19.70;91.60
21169;DHT22;10742;51.816;8.662;2022-08-21T04:19:40;19.70;91.60
21169;DHT22;10742;51.816;8.662;2022-08-21T04:23:02;19.70;91.60
21169;DHT22;10742;51.816;8.662;2022-08-21T04:26:24;19.70;91.60
21169;DHT22;10742;51.816;8.662;2022-08-21T04:29:46;19.70;91.70
21169;DHT22;10742;51.816;8.662;2022-08-21T04:33:07;19.70;91.60
21169;DHT22;10742;51.816;8.662;2022-08-21T04:36:28;19.80;91.70
21169;DHT22;10742;51.816;8.662;2022-08-21T04:39:49;19.80;91.70
21169;DHT22;10742;51.816;8.662;2022-08-21T04:43:13;19.80;91.70
21169;DHT22;10742;51.816;8.662;2022-08-21T04:46:34;19.90;91.70
21169;DHT22;10742;51.816;8.662;2022-08-21T04:49:55;19.90;91.80
21169;DHT22;10742;51.816;8.662;2022-08-21T04:53:26;19.80;91.70
21169;DHT22;10742;51.816;8.662;2022-08-21T04:56:54;19.90;91.80
21169;DHT22;10742;51.816;8.662;2022-08-21T05:00:17;19.90;91.90
21169;DHT22;10742;51.816;8.662;2022-08-21T05:03:39;19.90;91.80
21169;DHT22;10742;51.816;8.662;2022-08-21T05:07:04;20.00;91.80
21169;DHT22;10742;51.816;8.662;2022-08-21T05:10:27;20.00;91.90
21169;DHT22;10742;51.816;8.662;2022-08-21T05:13:49;20.00;91.80
21169;DHT22;10742;51.816;8.662;2022-08-21T05:17:10;20.00;91.80
21169;DHT22;10742;51.816;8.662;2022-08-21T05:20:32;20.10;91.90
21169;DHT22;10742;51.816;8.662;2022-08-21T05:23:55;20.10;91.90
21169;DHT22;10742;51.816;8.662;2022-08-21T05:27:16;20.10;91.90
21169;DHT22;10742;51.816;8.662;2022-08-21T05:30:37;20.10;91.80
21169;DHT22;10742;51.816;8.662;2022-08-21T05:33:59;20.10;91.80
21169;DHT22;10742;51.816;8.662;2022-08-21T05:37:20;20.10;91.70
21169;DHT22;10742;51.816;8.662;2022-08-21T05:40:41;20.10;91.70
21169;DHT22;10742;51.816;8.662;2022-08-21T05:44:04;20.10;91.70
21169;DHT22;10742;51.816;8.662;2022-08-21T05:47:25;20.10;91.80
21169;DHT22;10742;51.816;8.662;2022-08-21T05:50:47;20.10;91.80
21169;DHT22;10742;51.816;8.662;2022-08-21T05:54:09;20.20;92.00
21169;DHT22;10742;51.816;8.662;2022-08-21T05:57:30;20.20;92.10
21169;DHT22;10742;51.816;8.662;2022-08-21T06:00:51;20.30;92.20
21169;DHT22;10742;51.816;8.662;2022-08-21T06:04:12;20.40;92.20
21169;DHT22;10742;51.816;8.662;2022-08-21T06:07:34;20.40;92.30
21169;DHT22;10742;51.816;8.662;2022-08-21T06:10:57;20.50;92.50
21169;DHT22;10742;51.816;8.662;2022-08-21T06:14:18;20.70;92.60
21169;DHT22;10742;51.816;8.662;2022-08-21T06:17:39;20.80;92.60
21169;DHT22;10742;51.816;8.662;2022-08-21T06:21:00;21.00;92.60
21169;DHT22;10742;51.816;8.662;2022-08-21T06:24:21;21.20;92.70
21169;DHT22;10742;51.816;8.662;2022-08-21T06:27:43;21.50;92.60
21169;DHT22;10742;51.816;8.662;2022-08-21T06:31:14;21.60;92.60
21169;DHT22;10742;51.816;8.662;2022-08-21T06:34:40;21.90;92.40
21169;DHT22;10742;51.816;8.662;2022-08-21T06:38:02;22.10;92.30
21169;DHT22;10742;51.816;8.662;2022-08-21T06:41:24;22.40;92.20
21169;DHT22;10742;51.816;8.662;2022-08-21T06:44:45;22.60;92.10
21169;DHT22;10742;51.816;8.662;2022-08-21T06:48:06;22.90;91.80
21169;DHT22;10742;51.816;8.662;2022-08-21T06:51:27;23.10;91.50
21169;DHT22;10742;51.816;8.662;2022-08-21T06:54:48;23.30;91.20
21169;DHT22;10742;51.816;8.662;2022-08-21T06:58:11;23.60;90.90
21169;DHT22;10742;51.816;8.662;2022-08-21T07:01:32;23.90;90.70
21169;DHT22;10742;51.816;8.662;2022-08-21T07:04:54;24.10;90.50
21169;DHT22;10742;51.816;8.662;2022-08-21T07:08:15;24.40;90.20
21169;DHT22;10742;51.816;8.662;2022-08-21T07:11:37;24.60;89.90
21169;DHT22;10742;51.816;8.662;2022-08-21T07:14:59;24.80;89.20
21169;DHT22;10742;51.816;8.662;2022-08-21T07:18:20;25.10;88.70
21169;DHT22;10742;51.816;8.662;2022-08-21T07:21:41;25.30;88.10
21169;DHT22;10742;51.816;8.662;2022-08-21T07:25:03;25.50;87.70
21169;DHT22;10742;51.816;8.662;2022-08-21T07:28:25;25.80;87.10
21169;DHT22;10742;51.816;8.662;2022-08-21T07:31:45;26.00;86.60
21169;DHT22;10742;51.816;8.662;2022-08-21T07:35:07;26.20;85.90
21169;DHT22;10742;51.816;8.662;2022-08-21T07:38:28;26.50;85.10
21169;DHT22;10742;51.816;8.662;2022-08-21T07:41:49;26.70;84.60
21169;DHT22;10742;51.816;8.662;2022-08-21T07:45:11;26.90;84.00
21169;DHT22;10742;51.816;8.662;2022-08-21T07:48:32;27.10;83.10
21169;DHT22;10742;51.816;8.662;2022-08-21T07:51:54;27.40;82.80
21169;DHT22;10742;51.816;8.662;2022-08-21T07:55:18;27.60;81.70
21169;DHT22;10742;51.816;8.662;2022-08-21T07:58:39;27.80;80.80
21169;DHT22;10742;51.816;8.662;2022-08-21T08:02:00;27.90;80.50
21169;DHT22;10742;51.816;8.662;2022-08-21T08:05:25;28.10;79.70
21169;DHT22;10742;51.816;8.662;2022-08-21T08:08:46;28.30;78.90
21169;DHT22;10742;51.816;8.662;2022-08-21T08:12:08;28.50;78.50
21169;DHT22;10742;51.816;8.662;2022-08-21T08:15:29;28.70;78.00
21169;DHT22;10742;51.816;8.662;2022-08-21T08:18:53;28.90;77.50
21169;DHT22;10742;51.816;8.662;2022-08-21T08:22:17;29.00;76.60
21169;DHT22;10742;51.816;8.662;2022-08-21T08:25:42;29.20;76.20
21169;DHT22;10742;51.816;8.662;2022-08-21T08:29:03;29.40;74.60
21169;DHT22;10742;51.816;8.662;2022-08-21T08:32:24;29.50;73.80
21169;DHT22;10742;51.816;8.662;2022-08-21T08:35:48;29.70;73.10
21169;DHT22;10742;51.816;8.662;2022-08-21T08:39:09;29.80;72.10
21169;DHT22;10742;51.816;8.662;2022-08-21T08:42:36;29.90;71.70
21169;DHT22;10742;51.816;8.662;2022-08-21T08:45:58;30.10;70.00
21169;DHT22;10742;51.816;8.662;2022-08-21T08:53:00;30.40;68.20
21169;DHT22;10742;51.816;8.662;2022-08-21T08:56:29;30.50;66.60
21169;DHT22;10742;51.816;8.662;2022-08-21T08:59:55;30.60;67.10
21169;DHT22;10742;51.816;8.662;2022-08-21T09:03:16;30.80;66.20
21169;DHT22;10742;51.816;8.662;2022-08-21T09:06:58;30.90;66.40
21169;DHT22;10742;51.816;8.662;2022-08-21T09:10:32;31.00;63.20
21169;DHT22;10742;51.816;8.662;2022-08-21T09:14:26;31.20;62.70
21169;DHT22;10742;51.816;8.662;2022-08-21T09:25:16;31.40;61.40
21169;DHT22;10742;51.816;8.662;2022-08-21T09:28:40;31.50;58.90
21169;DHT22;10742;51.816;8.662;2022-08-21T09:32:04;31.70;59.80
21169;DHT22;10742;51.816;8.662;2022-08-21T09:35:30;31.70;58.60
21169;DHT22;10742;51.816;8.662;2022-08-21T09:38:54;31.70;58.40
21169;DHT22;10742;51.816;8.662;2022-08-21T09:42:27;31.80;58.40
21169;DHT22;10742;51.816;8.662;2022-08-21T09:45:50;31.80;56.30
21169;DHT22;10742;51.816;8.662;2022-08-21T09:49:33;31.80;56.80
21169;DHT22;10742;51.816;8.662;2022-08-21T09:52:58;31.90;55.90
21169;DHT22;10742;51.816;8.662;2022-08-21T09:56:27;32.00;56.10
21169;DHT22;10742;51.816;8.662;2022-08-21T10:00:19;32.00;55.80
21169;DHT22;10742;51.816;8.662;2022-08-21T10:03:40;32.00;55.80
21169;DHT22;10742;51.816;8.662;2022-08-21T10:07:12;32.10;56.10
21169;DHT22;10742;51.816;8.662;2022-08-21T10:10:36;32.10;54.70
21169;DHT22;10742;51.816;8.662;2022-08-21T10:14:13;32.20;55.20
21169;DHT22;10742;51.816;8.662;2022-08-21T10:17:56;32.20;53.20
21169;DHT22;10742;51.816;8.662;2022-08-21T10:21:27;32.20;53.50
21169;DHT22;10742;51.816;8.662;2022-08-21T10:25:01;32.20;53.70
21169;DHT22;10742;51.816;8.662;2022-08-21T10:36:03;32.30;52.60
21169;DHT22;10742;51.816;8.662;2022-08-21T10:39:57;32.30;52.50
21169;DHT22;10742;51.816;8.662;2022-08-21T10:46:54;32.30;52.50
21169;DHT22;10742;51.816;8.662;2022-08-21T10:54:30;32.10;51.80
21169;DHT22;10742;51.816;8.662;2022-08-21T10:58:11;32.10;52.20
21169;DHT22;10742;51.816;8.662;2022-08-21T11:01:49;32.10;51.80
21169;DHT22;10742;51.816;8.662;2022-08-21T11:05:18;32.00;51.60
21169;DHT22;10742;51.816;8.662;2022-08-21T11:08:43;32.00;51.70
21169;DHT22;10742;51.816;8.662;2022-08-21T11:12:26;31.90;51.80
21169;DHT22;10742;51.816;8.662;2022-08-21T11:16:13;31.90;52.00
21169;DHT22;10742;51.816;8.662;2022-08-21T11:19:59;31.90;50.80
21169;DHT22;10742;51.816;8.662;2022-08-21T11:23:33;32.00;51.30
21169;DHT22;10742;51.816;8.662;2022-08-21T11:27:04;32.00;51.20
21169;DHT22;10742;51.816;8.662;2022-08-21T11:30:39;32.00;51.00
21169;DHT22;10742;51.816;8.662;2022-08-21T11:34:13;32.10;50.80
21169;DHT22;10742;51.816;8.662;2022-08-21T11:37:54;32.10;51.10
21169;DHT22;10742;51.816;8.662;2022-08-21T11:41:36;32.20;49.80
21169;DHT22;10742;51.816;8.662;2022-08-21T11:45:19;32.30;49.50
21169;DHT22;10742;51.816;8.662;2022-08-21T11:55:59;32.40;50.30
21169;DHT22;10742;51.816;8.662;2022-08-21T11:59:43;32.50;49.20
21169;DHT22;10742;51.816;8.662;2022-08-21T12:03:13;32.50;48.90
21169;DHT22;10742;51.816;8.662;2022-08-21T12:06:40;32.60;49.10
21169;DHT22;10742;51.816;8.662;2022-08-21T12:10:05;32.60;48.90
21169;DHT22;10742;51.816;8.662;2022-08-21T12:13:31;32.60;48.80
21169;DHT22;10742;51.816;8.662;2022-08-21T12:17:04;32.60;49.00
21169;DHT22;10742;51.816;8.662;2022-08-21T12:20:38;32.60;48.80
21169;DHT22;10742;51.816;8.662;2022-08-21T12:24:17;32.60;47.90
21169;DHT22;10742;51.816;8.662;2022-08-21T12:27:47;32.60;48.80
21169;DHT22;10742;51.816;8.662;2022-08-21T12:31:22;32.60;48.30
21169;DHT22;10742;51.816;8.662;2022-08-21T12:35:31;32.70;47.80
21169;DHT22;10742;51.816;8.662;2022-08-21T12:39:01;32.70;47.30
21169;DHT22;10742;51.816;8.662;2022-08-21T12:42:38;32.70;47.30
21169;DHT22;10742;51.816;8.662;2022-08-21T12:46:01;32.70;47.20
21169;DHT22;10742;51.816;8.662;2022-08-21T12:49:37;32.60;47.30
21169;DHT22;10742;51.816;8.662;2022-08-21T12:53:13;32.60;46.30
21169;DHT22;10742;51.816;8.662;2022-08-21T12:56:36;32.60;47.10
21169;DHT22;10742;51.816;8.662;2022-08-21T13:00:02;32.60;47.30
21169;DHT22;10742;51.816;8.662;2022-08-21T13:03:25;32.60;46.90
21169;DHT22;10742;51.816;8.662;2022-08-21T13:06:49;32.60;46.80
21169;DHT22;10742;51.816;8.662;2022-08-21T13:10:25;32.50;46.60
21169;DHT22;10742;51.816;8.662;2022-08-21T13:13:51;32.50;46.70
21169;DHT22;10742;51.816;8.662;2022-08-21T13:17:20;32.40;46.10
21169;DHT22;10742;51.816;8.662;2022-08-21T13:20:42;32.40;45.90
21169;DHT22;10742;51.816;8.662;2022-08-21T13:24:36;32.30;46.70
21169;DHT22;10742;51.816;8.662;2022-08-21T13:28:10;32.20;46.70
21169;DHT22;10742;51.816;8.662;2022-08-21T13:31:33;32.20;45.90
21169;DHT22;10742;51.816;8.662;2022-08-21T13:34:54;32.20;46.40
21169;DHT22;10742;51.816;8.662;2022-08-21T13:38:17;32.20;46.20
21169;DHT22;10742;51.816;8.662;2022-08-21T13:41:43;32.20;45.80
21169;DHT22;10742;51.816;8.662;2022-08-21T13:45:12;32.20;45.60
21169;DHT22;10742;51.816;8.662;2022-08-21T13:48:34;32.20;45.70
21169;DHT22;10742;51.816;8.662;2022-08-21T13:51:56;32.20;45.60
21169;DHT22;10742;51.816;8.662;2022-08-21T13:55:17;32.20;45.80
21169;DHT22;10742;51.816;8.662;2022-08-21T13:58:45;32.10;45.80
21169;DHT22;10742;51.816;8.662;2022-08-21T14:02:19;32.20;45.30
21169;DHT22;10742;51.816;8.662;2022-08-21T14:05:45;32.10;44.80
21169;DHT22;10742;51.816;8.662;2022-08-21T14:13:01;32.00;45.50
21169;DHT22;10742;51.816;8.662;2022-08-21T14:17:03;32.00;45.20
21169;DHT22;10742;51.816;8.662;2022-08-21T14:20:31;32.00;45.00
21169;DHT22;10742;51.816;8.662;2022-08-21T14:24:02;32.00;45.20
21169;DHT22;10742;51.816;8.662;2022-08-21T14:27:23;31.90;45.10
21169;DHT22;10742;51.816;8.662;2022-08-21T14:30:44;31.90;45.70
21169;DHT22;10742;51.816;8.662;2022-08-21T14:34:06;31.90;45.60
21169;DHT22;10742;51.816;8.662;2022-08-21T14:37:27;31.80;45.50
21169;DHT22;10742;51.816;8.662;2022-08-21T14:54:55;30.20;47.90
21169;DHT22;10742;51.816;8.662;2022-08-21T14:58:16;29.70;47.80
21169;DHT22;10742;51.816;8.662;2022-08-21T15:01:38;29.60;47.70
21169;DHT22;10742;51.816;8.662;2022-08-21T15:04:59;29.70;47.60
21169;DHT22;10742;51.816;8.662;2022-08-21T15:08:20;29.90;47.20
21169;DHT22;10742;51.816;8.662;2022-08-21T15:11:42;30.00;46.90
21169;DHT22;10742;51.816;8.662;2022-08-21T15:15:07;30.20;46.70
21169;DHT22;10742;51.816;8.662;2022-08-21T15:18:29;30.20;46.30
21169;DHT22;10742;51.816;8.662;2022-08-21T15:21:51;30.30;46.20
21169;DHT22;10742;51.816;8.662;2022-08-21T15:25:11;30.40;46.10
21169;DHT22;10742;51.816;8.662;2022-08-21T15:28:34;30.50;45.70
21169;DHT22;10742;51.816;8.662;2022-08-21T15:31:56;30.50;45.20
21169;DHT22;10742;51.816;8.662;2022-08-21T15:35:18;30.50;45.20
21169;DHT22;10742;51.816;8.662;2022-08-21T15:38:39;30.50;45.70
21169;DHT22;10742;51.816;8.662;2022-08-21T15:42:00;30.40;45.90
21169;DHT22;10742;51.816;8.662;2022-08-21T15:45:22;30.50;45.70
21169;DHT22;10742;51.816;8.662;2022-08-21T15:48:43;30.50;45.50
21169;DHT22;10742;51.816;8.662;2022-08-21T15:52:04;30.50;45.20
21169;DHT22;10742;51.816;8.662;2022-08-21T15:55:26;30.50;45.40
21169;DHT22;10742;51.816;8.662;2022-08-21T15:58:48;30.50;45.50
21169;DHT22;10742;51.816;8.662;2022-08-21T16:02:15;30.40;45.10
21169;DHT22;10742;51.816;8.662;2022-08-21T16:05:36;30.40;45.20
21169;DHT22;10742;51.816;8.662;2022-08-21T16:08:58;30.30;45.20
21169;DHT22;10742;51.816;8.662;2022-08-21T16:12:28;30.30;45.60
21169;DHT22;10742;51.816;8.662;2022-08-21T16:15:52;30.30;44.90
21169;DHT22;10742;51.816;8.662;2022-08-21T16:19:14;30.30;45.50
21169;DHT22;10742;51.816;8.662;2022-08-21T16:22:35;30.20;45.60
21169;DHT22;10742;51.816;8.662;2022-08-21T16:25:58;30.20;45.70
21169;DHT22;10742;51.816;8.662;2022-08-21T16:29:20;30.20;45.30
21169;DHT22;10742;51.816;8.662;2022-08-21T16:32:42;30.20;45.30
21169;DHT22;10742;51.816;8.662;2022-08-21T16:36:05;30.10;45.70
21169;DHT22;10742;51.816;8.662;2022-08-21T16:39:27;30.00;45.80
21169;DHT22;10742;51.816;8.662;2022-08-21T16:42:48;29.90;45.80
21169;DHT22;10742;51.816;8.662;2022-08-21T16:46:14;29.90;46.50
21169;DHT22;10742;51.816;8.662;2022-08-21T16:49:35;29.90;47.20
21169;DHT22;10742;51.816;8.662;2022-08-21T16:52:57;29.80;46.60
21169;DHT22;10742;51.816;8.662;2022-08-21T16:56:18;29.80;46.70
21169;DHT22;10742;51.816;8.662;2022-08-21T16:59:40;29.80;46.50
21169;DHT22;10742;51.816;8.662;2022-08-21T17:03:01;29.80;46.70
21169;DHT22;10742;51.816;8.662;2022-08-21T17:06:23;29.70;46.80
21169;DHT22;10742;51.816;8.662;2022-08-21T17:09:44;29.70;47.00
21169;DHT22;10742;51.816;8.662;2022-08-21T17:13:05;29.60;46.60
21169;DHT22;10742;51.816;8.662;2022-08-21T17:16:29;29.50;46.90
21169;DHT22;10742;51.816;8.662;2022-08-21T17:19:50;29.50;47.20
21169;DHT22;10742;51.816;8.662;2022-08-21T17:23:11;29.40;47.20
21169;DHT22;10742;51.816;8.662;2022-08-21T17:26:32;29.30;47.20
21169;DHT22;10742;51.816;8.662;2022-08-21T17:29:54;29.20;47.20
21169;DHT22;10742;51.816;8.662;2022-08-21T17:33:16;29.10;47.40
21169;DHT22;10742;51.816;8.662;2022-08-21T17:36:39;29.00;47.90
21169;DHT22;10742;51.816;8.662;2022-08-21T17:40:00;29.00;48.00
21169;DHT22;10742;51.816;8.662;2022-08-21T17:43:22;28.90;48.20
21169;DHT22;10742;51.816;8.662;2022-08-21T17:46:45;28.90;48.20
21169;DHT22;10742;51.816;8.662;2022-08-21T17:50:09;28.80;48.10
21169;DHT22;10742;51.816;8.662;2022-08-21T17:53:30;28.80;48.30
21169;DHT22;10742;51.816;8.662;2022-08-21T17:56:53;28.70;48.60
21169;DHT22;10742;51.816;8.662;2022-08-21T18:00:16;28.70;48.60
21169;DHT22;10742;51.816;8.662;2022-08-21T18:03:37;28.70;48.50
21169;DHT22;10742;51.816;8.662;2022-08-21T18:06:59;28.60;48.50
21169;DHT22;10742;51.816;8.662;2022-08-21T18:10:20;28.60;48.80
21169;DHT22;10742;51.816;8.662;2022-08-21T18:13:41;28.50;48.60
21169;DHT22;10742;51.816;8.662;2022-08-21T18:17:08;28.40;48.80
21169;DHT22;10742;51.816;8.662;2022-08-21T18:20:30;28.40;49.10
21169;DHT22;10742;51.816;8.662;2022-08-21T18:23:52;28.30;49.30
21169;DHT22;10742;51.816;8.662;2022-08-21T18:27:16;28.20;49.40
21169;DHT22;10742;51.816;8.662;2022-08-21T18:30:40;28.20;49.80
21169;DHT22;10742;51.816;8.662;2022-08-21T18:34:09;28.10;49.50
21169;DHT22;10742;51.816;8.662;2022-08-21T18:37:31;28.00;49.60
21169;DHT22;10742;51.816;8.662;2022-08-21T18:40:52;28.00;49.90
21169;DHT22;10742;51.816;8.662;2022-08-21T18:44:17;27.90;50.00
21169;DHT22;10742;51.816;8.662;2022-08-21T18:47:43;27.80;50.10
21169;DHT22;10742;51.816;8.662;2022-08-21T18:51:04;27.70;50.40
21169;DHT22;10742;51.816;8.662;2022-08-21T18:54:26;27.50;50.40
21169;DHT22;10742;51.816;8.662;2022-08-21T18:57:46;27.40;50.60
21169;DHT22;10742;51.816;8.662;2022-08-21T19:01:08;27.40;51.00
21169;DHT22;10742;51.816;8.662;2022-08-21T19:04:29;27.30;51.10
21169;DHT22;10742;51.816;8.662;2022-08-21T19:08:02;27.30;51.40
21169;DHT22;10742;51.816;8.662;2022-08-21T19:11:24;27.20;51.90
21169;DHT22;10742;51.816;8.662;2022-08-21T19:14:45;27.10;52.30
21169;DHT22;10742;51.816;8.662;2022-08-21T19:18:10;27.00;52.60
21169;DHT22;10742;51.816;8.662;2022-08-21T19:21:31;27.00;53.00
21169;DHT22;10742;51.816;8.662;2022-08-21T19:24:52;26.90;53.00
21169;DHT22;10742;51.816;8.662;2022-08-21T19:28:30;26.80;53.20
21169;DHT22;10742;51.816;8.662;2022-08-21T19:31:52;26.70;53.80
21169;DHT22;10742;51.816;8.662;2022-08-21T19:35:13;26.70;53.50
21169;DHT22;10742;51.816;8.662;2022-08-21T19:38:38;26.60;53.70
21169;DHT22;10742;51.816;8.662;2022-08-21T19:41:59;26.50;53.80
21169;DHT22;10742;51.816;8.662;2022-08-21T19:45:20;26.40;54.10
21169;DHT22;10742;51.816;8.662;2022-08-21T19:48:41;26.40;54.30
21169;DHT22;10742;51.816;8.662;2022-08-21T19:52:03;26.30;54.60
21169;DHT22;10742;51.816;8.662;2022-08-21T19:55:24;26.20;54.90
21169;DHT22;10742;51.816;8.662;2022-08-21T19:58:45;26.00;55.20
21169;DHT22;10742;51.816;8.662;2022-08-21T20:02:12;25.90;55.70
21169;DHT22;10742;51.816;8.662;2022-08-21T20:05:33;25.80;56.40
21169;DHT22;10742;51.816;8.662;2022-08-21T20:08:54;25.70;56.50
21169;DHT22;10742;51.816;8.662;2022-08-21T20:12:15;25.50;56.80
21169;DHT22;10742;51.816;8.662;2022-08-21T20:15:36;25.50;56.80
21169;DHT22;10742;51.816;8.662;2022-08-21T20:18:59;25.40;56.90
21169;DHT22;10742;51.816;8.662;2022-08-21T20:22:23;25.30;57.20
21169;DHT22;10742;51.816;8.662;2022-08-21T20:25:45;25.20;57.10
21169;DHT22;10742;51.816;8.662;2022-08-21T20:29:06;25.10;57.30
21169;DHT22;10742;51.816;8.662;2022-08-21T20:32:27;25.00;57.40
21169;DHT22;10742;51.816;8.662;2022-08-21T20:35:49;24.90;57.80
21169;DHT22;10742;51.816;8.662;2022-08-21T20:39:12;24.80;57.90
21169;DHT22;10742;51.816;8.662;2022-08-21T20:42:33;24.70;57.90
21169;DHT22;10742;51.816;8.662;2022-08-21T20:45:55;24.60;57.90
21169;DHT22;10742;51.816;8.662;2022-08-21T20:49:20;24.40;58.00
21169;DHT22;10742;51.816;8.662;2022-08-21T20:52:49;24.30;58.50
21169;DHT22;10742;51.816;8.662;2022-08-21T20:56:18;24.10;58.90
21169;DHT22;10742;51.816;8.662;2022-08-21T20:59:45;24.00;59.70
21169;DHT22;10742;51.816;8.662;2022-08-21T21:03:13;24.00;60.20
21169;DHT22;10742;51.816;8.662;2022-08-21T21:06:34;23.90;60.60
21169;DHT22;10742;51.816;8.662;2022-08-21T21:09:57;23.80;60.50
21169;DHT22;10742;51.816;8.662;2022-08-21T21:13:31;23.70;61.90
21169;DHT22;10742;51.816;8.662;2022-08-21T21:17:02;23.70;61.60
21169;DHT22;10742;51.816;8.662;2022-08-21T21:20:48;23.60;61.80
21169;DHT22;10742;51.816;8.662;2022-08-21T21:24:18;23.60;61.60
21169;DHT22;10742;51.816;8.662;2022-08-21T21:27:56;23.50;61.10
21169;DHT22;10742;51.816;8.662;2022-08-21T21:31:17;23.40;62.10
21169;DHT22;10742;51.816;8.662;2022-08-21T21:34:42;23.30;61.50
21169;DHT22;10742;51.816;8.662;2022-08-21T21:38:31;23.30;62.20
21169;DHT22;10742;51.816;8.662;2022-08-21T21:46:12;23.00;63.20
21169;DHT22;10742;51.816;8.662;2022-08-21T21:50:02;23.00;63.60
21169;DHT22;10742;51.816;8.662;2022-08-21T21:53:39;22.90;63.90
21169;DHT22;10742;51.816;8.662;2022-08-21T21:57:29;22.90;64.30
21169;DHT22;10742;51.816;8.662;2022-08-21T22:01:06;22.80;64.60
21169;DHT22;10742;51.816;8.662;2022-08-21T22:04:43;22.70;64.60
21169;DHT22;10742;51.816;8.662;2022-08-21T22:08:17;22.70;65.20
21169;DHT22;10742;51.816;8.662;2022-08-21T22:15:09;22.60;65.10
21169;DHT22;10742;51.816;8.662;2022-08-21T22:18:55;22.50;65.40
21169;DHT22;10742;51.816;8.662;2022-08-21T22:22:20;22.50;66.70
21169;DHT22;10742;51.816;8.662;2022-08-21T22:25:45;22.50;66.20
21169;DHT22;10742;51.816;8.662;2022-08-21T22:29:12;22.40;66.50
21169;DHT22;10742;51.816;8.662;2022-08-21T22:32:41;22.40;66.80